CheckWX is a tool to help pilots better visualize weather data.  It is not intended as a substitute for an official pre-flight weather briefing.

18:20:22 UTC

KPWM TAF
Portland International Jetport Airport
Portland, Maine, USA
KPWM 201720Z 2018/2118 31006KT P6SM FEW250

Sep-20@
18:00 UTC

Sep-20 @ 18:00 UTC

Sep-21@
18:00 UTC

Sep-21 @ 18:00 UTC

KPWM 201720Z 2018/2118 31006KT P6SM FEW250
Wind
  • 310° at 6 KTS
Cloud Levels
  • Few at 25,000' AGL